sensor_id;sensor_type;location;lat;lon;timestamp;pressure;altitude;pressure_sealevel;temperature;humidity
63568;BME280;49715;42.386;20.434;2023-02-03T00:01:47;97906.31;;;5.21;58.11
63568;BME280;49715;42.386;20.434;2023-02-03T00:04:13;97903.94;;;5.18;57.94
63568;BME280;49715;42.386;20.434;2023-02-03T00:06:41;97907.97;;;5.22;57.82
63568;BME280;49715;42.386;20.434;2023-02-03T00:09:08;97900.06;;;5.23;57.84
63568;BME280;49715;42.386;20.434;2023-02-03T00:11:34;97921.38;;;5.30;58.00
63568;BME280;49715;42.386;20.434;2023-02-03T00:14:00;97908.31;;;5.30;57.91
63568;BME280;49715;42.386;20.434;2023-02-03T00:16:27;97923.03;;;5.31;58.26
63568;BME280;49715;42.386;20.434;2023-02-03T00:18:53;97943.00;;;5.32;58.34
63568;BME280;49715;42.386;20.434;2023-02-03T00:21:20;97923.97;;;5.30;57.85
63568;BME280;49715;42.386;20.434;2023-02-03T00:23:46;97919.19;;;5.24;58.24
63568;BME280;49715;42.386;20.434;2023-02-03T00:26:15;97925.69;;;5.18;58.10
63568;BME280;49715;42.386;20.434;2023-02-03T00:28:44;97928.91;;;5.09;58.37
63568;BME280;49715;42.386;20.434;2023-02-03T00:31:22;97930.25;;;5.02;58.16
63568;BME280;49715;42.386;20.434;2023-02-03T00:33:56;97939.75;;;4.90;58.33
63568;BME280;49715;42.386;20.434;2023-02-03T00:36:23;97917.69;;;4.81;58.26
63568;BME280;49715;42.386;20.434;2023-02-03T00:38:51;97948.09;;;4.82;58.62
63568;BME280;49715;42.386;20.434;2023-02-03T00:41:18;97940.13;;;4.71;58.92
63568;BME280;49715;42.386;20.434;2023-02-03T00:43:45;97940.25;;;4.70;58.93
63568;BME280;49715;42.386;20.434;2023-02-03T00:46:13;97930.84;;;4.67;58.72
63568;BME280;49715;42.386;20.434;2023-02-03T00:48:40;97930.41;;;4.60;58.80
63568;BME280;49715;42.386;20.434;2023-02-03T00:51:07;97921.16;;;4.69;58.69
63568;BME280;49715;42.386;20.434;2023-02-03T00:53:34;97937.72;;;4.68;58.77
63568;BME280;49715;42.386;20.434;2023-02-03T00:56:01;97935.34;;;4.65;58.75
63568;BME280;49715;42.386;20.434;2023-02-03T00:58:27;97945.84;;;4.63;58.64
63568;BME280;49715;42.386;20.434;2023-02-03T01:00:54;97938.66;;;4.54;58.69
63568;BME280;49715;42.386;20.434;2023-02-03T01:03:22;97946.19;;;4.59;58.64
63568;BME280;49715;42.386;20.434;2023-02-03T01:05:49;97946.38;;;4.56;58.56
63568;BME280;49715;42.386;20.434;2023-02-03T01:08:16;97947.41;;;4.53;58.82
63568;BME280;49715;42.386;20.434;2023-02-03T01:10:42;97960.44;;;4.53;58.76
63568;BME280;49715;42.386;20.434;2023-02-03T01:13:09;97964.31;;;4.48;58.90
63568;BME280;49715;42.386;20.434;2023-02-03T01:15:35;97957.22;;;4.50;59.03
63568;BME280;49715;42.386;20.434;2023-02-03T01:18:02;97959.09;;;4.48;58.99
63568;BME280;49715;42.386;20.434;2023-02-03T01:20:29;97953.03;;;4.47;59.30
63568;BME280;49715;42.386;20.434;2023-02-03T01:22:57;97950.81;;;4.41;59.22
63568;BME280;49715;42.386;20.434;2023-02-03T01:25:24;97952.50;;;4.42;59.67
63568;BME280;49715;42.386;20.434;2023-02-03T01:27:50;97958.94;;;4.36;59.79
63568;BME280;49715;42.386;20.434;2023-02-03T01:30:17;97945.06;;;4.36;60.30
63568;BME280;49715;42.386;20.434;2023-02-03T01:32:43;97961.03;;;4.31;59.93
63568;BME280;49715;42.386;20.434;2023-02-03T01:35:10;97962.69;;;4.32;59.80
63568;BME280;49715;42.386;20.434;2023-02-03T01:37:38;97960.47;;;4.26;59.77
63568;BME280;49715;42.386;20.434;2023-02-03T01:40:05;97973.97;;;4.33;59.64
63568;BME280;49715;42.386;20.434;2023-02-03T01:42:33;97971.88;;;4.38;59.46
63568;BME280;49715;42.386;20.434;2023-02-03T01:45:00;97986.59;;;4.39;59.60
63568;BME280;49715;42.386;20.434;2023-02-03T01:47:30;97970.94;;;4.39;59.67
63568;BME280;49715;42.386;20.434;2023-02-03T01:50:20;97969.56;;;4.33;59.72
63568;BME280;49715;42.386;20.434;2023-02-03T01:52:55;97972.94;;;4.35;59.91
63568;BME280;49715;42.386;20.434;2023-02-03T01:55:27;97988.38;;;4.38;59.90
63568;BME280;49715;42.386;20.434;2023-02-03T01:58:27;97979.66;;;4.39;59.91
63568;BME280;49715;42.386;20.434;2023-02-03T02:00:53;97981.38;;;4.39;60.06
63568;BME280;49715;42.386;20.434;2023-02-03T02:03:25;97967.72;;;4.35;60.06
63568;BME280;49715;42.386;20.434;2023-02-03T02:06:06;97951.22;;;4.35;60.04
63568;BME280;49715;42.386;20.434;2023-02-03T02:08:34;97958.94;;;4.36;59.90
63568;BME280;49715;42.386;20.434;2023-02-03T02:11:01;97978.41;;;4.45;59.51
63568;BME280;49715;42.386;20.434;2023-02-03T02:13:31;97991.53;;;4.44;59.47
63568;BME280;49715;42.386;20.434;2023-02-03T02:16:19;97968.66;;;4.34;59.91
63568;BME280;49715;42.386;20.434;2023-02-03T02:37:49;98007.06;;;3.91;59.54
63568;BME280;49715;42.386;20.434;2023-02-03T02:40:27;98005.63;;;3.85;59.59
63568;BME280;49715;42.386;20.434;2023-02-03T02:45:49;98008.72;;;3.78;59.78
63568;BME280;49715;42.386;20.434;2023-02-03T02:48:22;98012.72;;;3.69;59.42
63568;BME280;49715;42.386;20.434;2023-02-03T02:50:55;98008.19;;;3.58;59.57
63568;BME280;49715;42.386;20.434;2023-02-03T02:53:25;98021.88;;;3.62;59.59
63568;BME280;49715;42.386;20.434;2023-02-03T02:55:55;98031.81;;;3.55;59.74
63568;BME280;49715;42.386;20.434;2023-02-03T02:58:28;98017.38;;;3.50;59.89
63568;BME280;49715;42.386;20.434;2023-02-03T03:00:56;98009.00;;;3.45;59.79
63568;BME280;49715;42.386;20.434;2023-02-03T03:03:23;98009.75;;;3.47;59.96
63568;BME280;49715;42.386;20.434;2023-02-03T03:06:40;98012.53;;;3.44;59.60
63568;BME280;49715;42.386;20.434;2023-02-03T03:09:02;98019.63;;;3.42;59.87
63568;BME280;49715;42.386;20.434;2023-02-03T03:11:32;98020.47;;;3.42;59.77
63568;BME280;49715;42.386;20.434;2023-02-03T03:14:03;98006.00;;;3.36;59.86
63568;BME280;49715;42.386;20.434;2023-02-03T03:16:35;98028.81;;;3.33;60.12
63568;BME280;49715;42.386;20.434;2023-02-03T03:19:10;98029.66;;;3.33;60.04
63568;BME280;49715;42.386;20.434;2023-02-03T03:22:08;98030.94;;;3.26;60.20
63568;BME280;49715;42.386;20.434;2023-02-03T03:24:43;98007.41;;;3.14;59.95
63568;BME280;49715;42.386;20.434;2023-02-03T03:27:15;98022.91;;;3.15;59.76
63568;BME280;49715;42.386;20.434;2023-02-03T03:29:51;98012.03;;;3.08;59.77
63568;BME280;49715;42.386;20.434;2023-02-03T03:32:19;98021.63;;;3.08;59.88
63568;BME280;49715;42.386;20.434;2023-02-03T03:34:46;98020.13;;;3.04;61.39
63568;BME280;49715;42.386;20.434;2023-02-03T03:37:33;98029.59;;;3.05;60.24
63568;BME280;49715;42.386;20.434;2023-02-03T03:40:19;98031.94;;;3.09;60.10
63568;BME280;49715;42.386;20.434;2023-02-03T03:42:50;98033.50;;;3.12;59.96
63568;BME280;49715;42.386;20.434;2023-02-03T03:48:10;98038.09;;;3.08;60.74
63568;BME280;49715;42.386;20.434;2023-02-03T03:51:11;98044.59;;;3.16;60.31
63568;BME280;49715;42.386;20.434;2023-02-03T03:53:41;98049.13;;;3.12;59.95
63568;BME280;49715;42.386;20.434;2023-02-03T03:56:13;98044.13;;;3.09;59.65
63568;BME280;49715;42.386;20.434;2023-02-03T03:58:43;98045.38;;;3.02;59.84
63568;BME280;49715;42.386;20.434;2023-02-03T04:01:12;98048.44;;;2.94;59.84
63568;BME280;49715;42.386;20.434;2023-02-03T04:03:55;98048.09;;;3.00;59.81
63568;BME280;49715;42.386;20.434;2023-02-03T04:06:25;98060.19;;;3.01;59.92
63568;BME280;49715;42.386;20.434;2023-02-03T04:08:51;98038.56;;;2.85;59.73
63568;BME280;49715;42.386;20.434;2023-02-03T04:11:18;98056.25;;;2.94;59.75
63568;BME280;49715;42.386;20.434;2023-02-03T04:14:07;98040.22;;;2.86;59.86
63568;BME280;49715;42.386;20.434;2023-02-03T04:16:34;98061.53;;;2.93;59.49
63568;BME280;49715;42.386;20.434;2023-02-03T04:19:00;98055.69;;;2.89;59.41
63568;BME280;49715;42.386;20.434;2023-02-03T04:21:27;98069.63;;;2.88;59.47
63568;BME280;49715;42.386;20.434;2023-02-03T04:23:53;98066.00;;;2.91;59.14
63568;BME280;49715;42.386;20.434;2023-02-03T04:26:23;98068.72;;;2.89;59.20
63568;BME280;49715;42.386;20.434;2023-02-03T04:28:49;98080.31;;;2.83;59.10
63568;BME280;49715;42.386;20.434;2023-02-03T04:31:16;98069.22;;;2.80;59.07
63568;BME280;49715;42.386;20.434;2023-02-03T04:33:42;98072.00;;;2.77;59.05
63568;BME280;49715;42.386;20.434;2023-02-03T04:36:09;98079.56;;;2.66;59.41
63568;BME280;49715;42.386;20.434;2023-02-03T04:38:35;98077.13;;;2.63;59.54
63568;BME280;49715;42.386;20.434;2023-02-03T04:41:02;98071.53;;;2.54;59.53
63568;BME280;49715;42.386;20.434;2023-02-03T04:43:28;98074.97;;;2.55;59.42
63568;BME280;49715;42.386;20.434;2023-02-03T04:45:54;98071.28;;;2.59;59.58
63568;BME280;49715;42.386;20.434;2023-02-03T04:48:21;98079.16;;;2.57;59.32
63568;BME280;49715;42.386;20.434;2023-02-03T04:50:47;98060.94;;;2.57;59.30
63568;BME280;49715;42.386;20.434;2023-02-03T04:53:15;98083.16;;;2.63;59.23
63568;BME280;49715;42.386;20.434;2023-02-03T04:55:46;98072.19;;;2.58;59.36
63568;BME280;49715;42.386;20.434;2023-02-03T04:58:13;98066.91;;;2.60;59.26
63568;BME280;49715;42.386;20.434;2023-02-03T05:00:40;98076.97;;;2.66;59.06
63568;BME280;49715;42.386;20.434;2023-02-03T05:03:06;98070.09;;;2.65;58.84
63568;BME280;49715;42.386;20.434;2023-02-03T05:05:33;98074.84;;;2.72;58.60
63568;BME280;49715;42.386;20.434;2023-02-03T05:07:59;98076.81;;;2.69;58.40
63568;BME280;49715;42.386;20.434;2023-02-03T05:10:26;98081.75;;;2.73;57.92
63568;BME280;49715;42.386;20.434;2023-02-03T05:12:52;98093.84;;;2.74;57.78
63568;BME280;49715;42.386;20.434;2023-02-03T05:15:19;98094.00;;;2.71;57.82
63568;BME280;49715;42.386;20.434;2023-02-03T05:17:45;98089.97;;;2.66;57.53
63568;BME280;49715;42.386;20.434;2023-02-03T05:20:11;98086.69;;;2.62;57.38
63568;BME280;49715;42.386;20.434;2023-02-03T05:22:38;98102.41;;;2.61;57.41
63568;BME280;49715;42.386;20.434;2023-02-03T05:25:06;98086.88;;;2.59;57.43
63568;BME280;49715;42.386;20.434;2023-02-03T05:27:33;98088.63;;;2.58;56.95
63568;BME280;49715;42.386;20.434;2023-02-03T05:29:59;98075.63;;;2.58;57.02
63568;BME280;49715;42.386;20.434;2023-02-03T05:32:26;98062.44;;;2.62;56.48
63568;BME280;49715;42.386;20.434;2023-02-03T05:34:52;98065.53;;;2.68;56.25
63568;BME280;49715;42.386;20.434;2023-02-03T05:37:19;98072.75;;;2.79;56.23
63568;BME280;49715;42.386;20.434;2023-02-03T05:39:45;98093.50;;;2.80;55.82
63568;BME280;49715;42.386;20.434;2023-02-03T05:42:12;98088.19;;;2.82;55.64
63568;BME280;49715;42.386;20.434;2023-02-03T05:44:38;98099.53;;;2.81;55.77
63568;BME280;49715;42.386;20.434;2023-02-03T05:47:04;98087.44;;;2.80;55.17
63568;BME280;49715;42.386;20.434;2023-02-03T05:49:31;98096.78;;;2.84;55.07
63568;BME280;49715;42.386;20.434;2023-02-03T05:51:57;98077.53;;;2.87;54.86
63568;BME280;49715;42.386;20.434;2023-02-03T05:54:24;98084.91;;;2.94;54.62
63568;BME280;49715;42.386;20.434;2023-02-03T05:56:50;98093.41;;;2.98;54.77
63568;BME280;49715;42.386;20.434;2023-02-03T05:59:17;98090.34;;;3.05;54.56
63568;BME280;49715;42.386;20.434;2023-02-03T06:01:43;98085.13;;;3.05;54.16
63568;BME280;49715;42.386;20.434;2023-02-03T06:04:10;98102.25;;;3.09;53.79
63568;BME280;49715;42.386;20.434;2023-02-03T06:06:36;98084.44;;;3.02;53.87
63568;BME280;49715;42.386;20.434;2023-02-03T06:09:05;98108.97;;;3.14;54.08
63568;BME280;49715;42.386;20.434;2023-02-03T06:11:33;98107.94;;;3.16;53.95
63568;BME280;49715;42.386;20.434;2023-02-03T06:14:01;98097.63;;;3.15;53.72
63568;BME280;49715;42.386;20.434;2023-02-03T06:16:28;98105.06;;;3.21;53.66
63568;BME280;49715;42.386;20.434;2023-02-03T06:18:55;98104.16;;;3.22;53.59
63568;BME280;49715;42.386;20.434;2023-02-03T06:21:26;98101.38;;;3.25;53.38
63568;BME280;49715;42.386;20.434;2023-02-03T06:23:53;98113.03;;;3.33;53.50
63568;BME280;49715;42.386;20.434;2023-02-03T06:26:21;98127.38;;;3.41;53.57
63568;BME280;49715;42.386;20.434;2023-02-03T06:28:47;98124.59;;;3.44;53.29
63568;BME280;49715;42.386;20.434;2023-02-03T06:31:14;98139.34;;;3.59;52.65
63568;BME280;49715;42.386;20.434;2023-02-03T06:33:41;98132.66;;;3.69;52.45
63568;BME280;49715;42.386;20.434;2023-02-03T06:36:07;98148.88;;;3.88;52.45
63568;BME280;49715;42.386;20.434;2023-02-03T06:38:34;98153.00;;;3.93;52.40
63568;BME280;49715;42.386;20.434;2023-02-03T06:41:00;98156.63;;;4.04;52.07
63568;BME280;49715;42.386;20.434;2023-02-03T06:43:29;98153.13;;;4.05;51.87
63568;BME280;49715;42.386;20.434;2023-02-03T06:45:56;98161.50;;;4.10;52.02
63568;BME280;49715;42.386;20.434;2023-02-03T06:48:22;98166.44;;;4.15;52.35
63568;BME280;49715;42.386;20.434;2023-02-03T06:50:49;98178.63;;;4.14;52.47
63568;BME280;49715;42.386;20.434;2023-02-03T06:53:15;98177.06;;;4.12;52.80
63568;BME280;49715;42.386;20.434;2023-02-03T06:55:42;98179.94;;;4.07;53.19
63568;BME280;49715;42.386;20.434;2023-02-03T06:58:08;98175.16;;;4.00;53.33
63568;BME280;49715;42.386;20.434;2023-02-03T07:00:35;98183.00;;;4.00;53.54
63568;BME280;49715;42.386;20.434;2023-02-03T07:03:01;98192.03;;;3.94;53.78
63568;BME280;49715;42.386;20.434;2023-02-03T07:05:29;98201.06;;;4.03;53.71
63568;BME280;49715;42.386;20.434;2023-02-03T07:07:55;98200.91;;;4.06;53.77
63568;BME280;49715;42.386;20.434;2023-02-03T07:10:22;98215.44;;;4.10;53.99
63568;BME280;49715;42.386;20.434;2023-02-03T07:12:49;98216.56;;;4.06;54.12
63568;BME280;49715;42.386;20.434;2023-02-03T07:15:17;98214.78;;;4.06;54.38
63568;BME280;49715;42.386;20.434;2023-02-03T07:17:46;98216.19;;;4.12;54.24
63568;BME280;49715;42.386;20.434;2023-02-03T07:20:20;98215.25;;;4.13;54.20
63568;BME280;49715;42.386;20.434;2023-02-03T07:22:54;98215.25;;;4.13;54.13
63568;BME280;49715;42.386;20.434;2023-02-03T07:25:22;98207.31;;;4.14;54.32
63568;BME280;49715;42.386;20.434;2023-02-03T07:27:49;98202.69;;;4.05;54.44
63568;BME280;49715;42.386;20.434;2023-02-03T07:30:16;98206.84;;;4.08;54.49
63568;BME280;49715;42.386;20.434;2023-02-03T07:32:49;98194.84;;;4.05;54.68
63568;BME280;49715;42.386;20.434;2023-02-03T07:35:16;98200.63;;;4.10;54.48
63568;BME280;49715;42.386;20.434;2023-02-03T07:37:43;98203.44;;;4.22;54.49
63568;BME280;49715;42.386;20.434;2023-02-03T07:40:10;98198.88;;;4.25;54.43
63568;BME280;49715;42.386;20.434;2023-02-03T07:42:40;98196.00;;;4.30;54.37
63568;BME280;49715;42.386;20.434;2023-02-03T07:45:08;98212.66;;;4.42;54.37
63568;BME280;49715;42.386;20.434;2023-02-03T07:47:35;98211.91;;;4.54;54.20
63568;BME280;49715;42.386;20.434;2023-02-03T07:50:02;98216.00;;;4.58;54.20
63568;BME280;49715;42.386;20.434;2023-02-03T07:52:29;98219.56;;;4.71;54.04
63568;BME280;49715;42.386;20.434;2023-02-03T07:54:55;98213.22;;;4.75;53.90
63568;BME280;49715;42.386;20.434;2023-02-03T07:57:22;98210.03;;;4.84;53.94
63568;BME280;49715;42.386;20.434;2023-02-03T07:59:48;98228.09;;;4.87;53.81
63568;BME280;49715;42.386;20.434;2023-02-03T08:02:14;98216.75;;;4.88;53.99
63568;BME280;49715;42.386;20.434;2023-02-03T08:04:41;98223.81;;;5.01;53.56
63568;BME280;49715;42.386;20.434;2023-02-03T08:07:07;98234.41;;;5.12;53.60
63568;BME280;49715;42.386;20.434;2023-02-03T08:09:34;98219.19;;;5.19;53.22
63568;BME280;49715;42.386;20.434;2023-02-03T08:12:00;98229.06;;;5.28;52.89
63568;BME280;49715;42.386;20.434;2023-02-03T08:14:27;98216.84;;;5.28;52.80
63568;BME280;49715;42.386;20.434;2023-02-03T08:16:53;98232.47;;;5.42;52.65
63568;BME280;49715;42.386;20.434;2023-02-03T08:19:20;98222.56;;;5.48;52.46
63568;BME280;49715;42.386;20.434;2023-02-03T08:21:46;98229.88;;;5.55;52.19
63568;BME280;49715;42.386;20.434;2023-02-03T08:24:12;98218.59;;;5.55;52.09
63568;BME280;49715;42.386;20.434;2023-02-03T08:26:39;98233.38;;;5.68;52.06
63568;BME280;49715;42.386;20.434;2023-02-03T08:29:05;98243.25;;;5.78;51.77
63568;BME280;49715;42.386;20.434;2023-02-03T08:31:34;98238.25;;;5.87;51.41
63568;BME280;49715;42.386;20.434;2023-02-03T08:34:00;98245.31;;;6.00;51.15
63568;BME280;49715;42.386;20.434;2023-02-03T08:36:27;98233.81;;;6.02;50.84
63568;BME280;49715;42.386;20.434;2023-02-03T08:38:54;98248.47;;;6.17;50.67
63568;BME280;49715;42.386;20.434;2023-02-03T08:41:20;98256.44;;;6.29;50.16
63568;BME280;49715;42.386;20.434;2023-02-03T08:43:47;98250.69;;;6.36;49.98
63568;BME280;49715;42.386;20.434;2023-02-03T08:46:14;98247.78;;;6.41;49.68
63568;BME280;49715;42.386;20.434;2023-02-03T08:48:41;98240.03;;;6.39;49.69
63568;BME280;49715;42.386;20.434;2023-02-03T08:51:14;98252.38;;;6.50;49.35
63568;BME280;49715;42.386;20.434;2023-02-03T08:53:41;98257.84;;;6.60;49.40
63568;BME280;49715;42.386;20.434;2023-02-03T08:56:10;98250.56;;;6.63;48.84
63568;BME280;49715;42.386;20.434;2023-02-03T08:58:37;98261.19;;;6.75;48.69
63568;BME280;49715;42.386;20.434;2023-02-03T09:01:13;98263.47;;;6.79;47.79
63568;BME280;49715;42.386;20.434;2023-02-03T09:03:40;98258.22;;;6.79;48.31
63568;BME280;49715;42.386;20.434;2023-02-03T09:06:07;98266.38;;;6.87;48.35
63568;BME280;49715;42.386;20.434;2023-02-03T09:08:34;98257.16;;;6.94;48.06
63568;BME280;49715;42.386;20.434;2023-02-03T09:11:00;98269.19;;;7.10;47.93
63568;BME280;49715;42.386;20.434;2023-02-03T09:13:27;98268.53;;;7.19;47.90
63568;BME280;49715;42.386;20.434;2023-02-03T09:15:53;98266.22;;;7.27;47.56
63568;BME280;49715;42.386;20.434;2023-02-03T09:18:20;98262.91;;;7.36;47.56
63568;BME280;49715;42.386;20.434;2023-02-03T09:20:46;98253.66;;;7.43;47.17
63568;BME280;49715;42.386;20.434;2023-02-03T09:23:13;98261.22;;;7.48;46.81
63568;BME280;49715;42.386;20.434;2023-02-03T09:25:39;98253.66;;;7.43;46.68
63568;BME280;49715;42.386;20.434;2023-02-03T09:28:06;98255.13;;;7.47;46.48
63568;BME280;49715;42.386;20.434;2023-02-03T09:30:33;98251.84;;;7.57;46.41
63568;BME280;49715;42.386;20.434;2023-02-03T09:32:59;98249.81;;;7.60;46.45
63568;BME280;49715;42.386;20.434;2023-02-03T09:35:26;98238.38;;;7.61;46.31
63568;BME280;49715;42.386;20.434;2023-02-03T09:37:54;98241.28;;;7.69;46.46
63568;BME280;49715;42.386;20.434;2023-02-03T09:40:25;98241.69;;;7.76;46.34
63568;BME280;49715;42.386;20.434;2023-02-03T09:45:27;98248.66;;;7.99;46.13
63568;BME280;49715;42.386;20.434;2023-02-03T09:47:57;98247.97;;;8.09;45.95
63568;BME280;49715;42.386;20.434;2023-02-03T09:50:27;98251.00;;;8.15;45.80
63568;BME280;49715;42.386;20.434;2023-02-03T09:52:56;98237.75;;;8.17;45.54
63568;BME280;49715;42.386;20.434;2023-02-03T09:55:29;98244.19;;;8.24;45.39
63568;BME280;49715;42.386;20.434;2023-02-03T09:58:11;98246.25;;;8.32;45.22
63568;BME280;49715;42.386;20.434;2023-02-03T10:03:53;98232.44;;;8.41;44.41
63568;BME280;49715;42.386;20.434;2023-02-03T10:06:40;98227.19;;;8.41;43.61
63568;BME280;49715;42.386;20.434;2023-02-03T10:09:33;98248.81;;;8.44;44.41
63568;BME280;49715;42.386;20.434;2023-02-03T10:17:40;98229.34;;;8.47;44.47
63568;BME280;49715;42.386;20.434;2023-02-03T10:22:51;98233.53;;;8.61;43.39
63568;BME280;49715;42.386;20.434;2023-02-03T10:25:33;98233.81;;;8.69;44.02
63568;BME280;49715;42.386;20.434;2023-02-03T10:28:09;98223.28;;;8.80;43.93
63568;BME280;49715;42.386;20.434;2023-02-03T10:30:42;98232.72;;;8.94;43.85
63568;BME280;49715;42.386;20.434;2023-02-03T10:33:13;98226.84;;;9.01;43.25
63568;BME280;49715;42.386;20.434;2023-02-03T10:39:03;98211.53;;;9.07;42.61
63568;BME280;49715;42.386;20.434;2023-02-03T10:41:36;98218.00;;;9.14;42.88
63568;BME280;49715;42.386;20.434;2023-02-03T10:44:06;98214.16;;;9.18;42.78
63568;BME280;49715;42.386;20.434;2023-02-03T10:46:35;98210.75;;;9.27;42.67
63568;BME280;49715;42.386;20.434;2023-02-03T10:49:03;98200.50;;;9.24;42.22
63568;BME280;49715;42.386;20.434;2023-02-03T10:51:35;98197.88;;;9.24;42.03
63568;BME280;49715;42.386;20.434;2023-02-03T10:54:02;98201.94;;;9.17;42.21
63568;BME280;49715;42.386;20.434;2023-02-03T10:56:32;98196.69;;;9.17;42.17
63568;BME280;49715;42.386;20.434;2023-02-03T10:59:01;98196.31;;;9.21;41.93
63568;BME280;49715;42.386;20.434;2023-02-03T11:04:26;98195.81;;;9.39;40.67
63568;BME280;49715;42.386;20.434;2023-02-03T11:06:56;98188.13;;;9.47;41.21
63568;BME280;49715;42.386;20.434;2023-02-03T11:09:36;98190.94;;;9.66;40.21
63568;BME280;49715;42.386;20.434;2023-02-03T11:12:14;98183.50;;;9.71;40.87
63568;BME280;49715;42.386;20.434;2023-02-03T11:14:50;98186.88;;;9.83;41.36
63568;BME280;49715;42.386;20.434;2023-02-03T11:17:23;98195.94;;;9.90;41.21
63568;BME280;49715;42.386;20.434;2023-02-03T11:19:53;98191.31;;;10.03;41.29
63568;BME280;49715;42.386;20.434;2023-02-03T11:22:35;98179.44;;;10.09;40.91
63568;BME280;49715;42.386;20.434;2023-02-03T11:25:14;98184.38;;;10.23;40.71
63568;BME280;49715;42.386;20.434;2023-02-03T11:27:42;98177.78;;;10.29;41.06
63568;BME280;49715;42.386;20.434;2023-02-03T11:30:19;98175.97;;;10.29;39.98
63568;BME280;49715;42.386;20.434;2023-02-03T11:32:49;98186.44;;;10.20;40.39
63568;BME280;49715;42.386;20.434;2023-02-03T11:35:26;98190.25;;;10.06;38.10
63568;BME280;49715;42.386;20.434;2023-02-03T11:37:55;98192.41;;;10.22;41.06
63568;BME280;49715;42.386;20.434;2023-02-03T11:40:29;98194.16;;;10.32;40.58
63568;BME280;49715;42.386;20.434;2023-02-03T11:45:38;98189.53;;;10.46;40.08
63568;BME280;49715;42.386;20.434;2023-02-03T11:53:46;98169.38;;;11.16;37.53
63568;BME280;49715;42.386;20.434;2023-02-03T12:19:34;98112.19;;;12.58;36.49
63568;BME280;49715;42.386;20.434;2023-02-03T12:25:35;98102.28;;;12.88;36.79
63568;BME280;49715;42.386;20.434;2023-02-03T12:34:09;98099.84;;;13.22;36.95
63568;BME280;49715;42.386;20.434;2023-02-03T12:36:50;98096.69;;;13.36;37.39
63568;BME280;49715;42.386;20.434;2023-02-03T12:42:23;98083.28;;;13.56;36.34
63568;BME280;49715;42.386;20.434;2023-02-03T12:44:59;98076.69;;;13.60;36.67
63568;BME280;49715;42.386;20.434;2023-02-03T12:47:39;98077.38;;;13.62;35.63
63568;BME280;49715;42.386;20.434;2023-02-03T12:50:30;98071.00;;;13.73;35.13
63568;BME280;49715;42.386;20.434;2023-02-03T12:53:19;98067.47;;;13.90;36.98
63568;BME280;49715;42.386;20.434;2023-02-03T12:58:58;98072.72;;;14.08;33.59
63568;BME280;49715;42.386;20.434;2023-02-03T13:01:36;98066.47;;;14.17;36.16
63568;BME280;49715;42.386;20.434;2023-02-03T13:09:27;98064.72;;;14.26;33.74
63568;BME280;49715;42.386;20.434;2023-02-03T13:20:26;98032.53;;;14.55;35.37
63568;BME280;49715;42.386;20.434;2023-02-03T13:22:57;98016.97;;;14.68;35.56
63568;BME280;49715;42.386;20.434;2023-02-03T13:25:29;98007.53;;;14.74;35.27
63568;BME280;49715;42.386;20.434;2023-02-03T13:31:21;98004.75;;;14.91;34.52
63568;BME280;49715;42.386;20.434;2023-02-03T13:42:40;98013.59;;;14.07;35.15
63568;BME280;49715;42.386;20.434;2023-02-03T13:47:35;98008.66;;;13.60;35.05
63568;BME280;49715;42.386;20.434;2023-02-03T13:50:23;98011.47;;;13.33;34.02
63568;BME280;49715;42.386;20.434;2023-02-03T13:53:21;98009.91;;;13.12;34.09
63568;BME280;49715;42.386;20.434;2023-02-03T13:55:56;98009.03;;;13.04;35.20
63568;BME280;49715;42.386;20.434;2023-02-03T13:58:29;98003.78;;;13.12;35.46
63568;BME280;49715;42.386;20.434;2023-02-03T14:01:05;97995.09;;;13.20;35.77
63568;BME280;49715;42.386;20.434;2023-02-03T14:06:02;97996.31;;;13.07;35.43
63568;BME280;49715;42.386;20.434;2023-02-03T14:16:35;97980.13;;;13.10;35.68
63568;BME280;49715;42.386;20.434;2023-02-03T14:19:03;97980.56;;;13.42;35.64
63568;BME280;49715;42.386;20.434;2023-02-03T14:21:50;97983.72;;;13.71;33.60
63568;BME280;49715;42.386;20.434;2023-02-03T14:24:21;97975.28;;;14.02;35.27
63568;BME280;49715;42.386;20.434;2023-02-03T14:26:52;97975.41;;;14.34;35.01
63568;BME280;49715;42.386;20.434;2023-02-03T14:29:30;97984.72;;;14.47;34.27
63568;BME280;49715;42.386;20.434;2023-02-03T14:32:02;97972.75;;;14.34;34.50
63568;BME280;49715;42.386;20.434;2023-02-03T14:37:13;97982.19;;;13.60;33.85
63568;BME280;49715;42.386;20.434;2023-02-03T14:45:12;97958.00;;;12.94;33.88
63568;BME280;49715;42.386;20.434;2023-02-03T14:56:16;97933.38;;;13.63;33.97
63568;BME280;49715;42.386;20.434;2023-02-03T14:58:54;97923.53;;;13.55;34.87
63568;BME280;49715;42.386;20.434;2023-02-03T15:01:24;97918.13;;;13.57;34.77
63568;BME280;49715;42.386;20.434;2023-02-03T15:06:47;97901.34;;;13.48;34.89
63568;BME280;49715;42.386;20.434;2023-02-03T15:09:44;97911.16;;;13.30;33.82
63568;BME280;49715;42.386;20.434;2023-02-03T15:12:25;97907.09;;;13.18;33.93
63568;BME280;49715;42.386;20.434;2023-02-03T15:14:52;97901.56;;;13.11;34.57
63568;BME280;49715;42.386;20.434;2023-02-03T15:17:24;97903.13;;;12.96;34.88
63568;BME280;49715;42.386;20.434;2023-02-03T15:19:52;97904.81;;;12.79;34.98
63568;BME280;49715;42.386;20.434;2023-02-03T15:22:25;97908.53;;;12.50;34.88
63568;BME280;49715;42.386;20.434;2023-02-03T15:25:02;97908.03;;;12.19;34.70
63568;BME280;49715;42.386;20.434;2023-02-03T15:27:31;97919.47;;;11.92;34.85
63568;BME280;49715;42.386;20.434;2023-02-03T15:29:58;97918.41;;;11.66;34.65
63568;BME280;49715;42.386;20.434;2023-02-03T15:32:44;97895.75;;;11.35;34.77
63568;BME280;49715;42.386;20.434;2023-02-03T15:35:16;97898.84;;;11.21;34.88
63568;BME280;49715;42.386;20.434;2023-02-03T15:40:18;97898.91;;;10.82;35.20
63568;BME280;49715;42.386;20.434;2023-02-03T15:45:28;97893.38;;;10.37;35.18
63568;BME280;49715;42.386;20.434;2023-02-03T15:48:23;97895.53;;;10.13;35.13
63568;BME280;49715;42.386;20.434;2023-02-03T15:51:11;97902.19;;;9.97;35.63